Adams, Illinois
Current Conditions -  °F | °C
As of 7:54 PM on Sunday 23 Nov 2014 (Local Time) from KUIN Reporting Station
Moderate Fog Moderate Fog  
Wind Chill: 51°   Ceiling: 200
Heat Index: 51°   Visibility: 0.25mi
Dew Point: 51°   Wind: 3mph
Humidity: 100%   Direction: 210°SSW
Pressure: 29.24"   Gusts: NA
Location:  39.8875°N, 91.0352°W
Report Text: KUIN 240154Z AUTO 21003KT 1/4SM FG VV002 11/11 A2924 RMK AO2 SLP900 T01060106
Loading
Personal Weather Stations






























Interactive Weather Map New forecast layout! Learn more

10-Day Weather Forecast

Advertisements
Track Severe Weather on mobile